createdAt,value
2023-05-10T00:00:32.579Z,526.3846
2023-05-10T00:01:34.268Z,525.7692
2023-05-10T00:02:35.854Z,526.6923
2023-05-10T00:03:37.501Z,528.3077
2023-05-10T00:04:39.121Z,525.7692
2023-05-10T00:05:40.789Z,524.1539
2023-05-10T00:06:42.377Z,524.3846
2023-05-10T00:07:44.033Z,524.2308
2023-05-10T00:08:45.655Z,520.8461
2023-05-10T00:09:47.305Z,521.6154
2023-05-10T00:10:48.989Z,521.0769
2023-05-10T00:11:50.558Z,520.1539
2023-05-10T00:12:52.239Z,518.6154
2023-05-10T00:13:53.815Z,519.5385
2023-05-10T00:14:55.488Z,517.4615
2023-05-10T00:15:57.156Z,514.7692
2023-05-10T00:16:58.824Z,520.6923
2023-05-10T00:18:00.500Z,522.8461
2023-05-10T00:19:01.990Z,524.0769
2023-05-10T00:20:03.740Z,524.6154
2023-05-10T00:21:05.385Z,524.7692
2023-05-10T00:22:07.009Z,525.1539
2023-05-10T00:23:08.652Z,526.7692
2023-05-10T00:24:10.349Z,527.0769
2023-05-10T00:25:11.977Z,526.9231
2023-05-10T00:26:13.623Z,526.0000
2023-05-10T00:27:15.239Z,524.5385
2023-05-10T00:28:16.862Z,524.3846
2023-05-10T00:29:18.464Z,522.3077
2023-05-10T00:30:20.097Z,519.6154
2023-05-10T00:31:21.744Z,518.1539
2023-05-10T00:32:23.503Z,519.1539
2023-05-10T00:33:25.091Z,521.6154
2023-05-10T00:34:26.697Z,522.8461
2023-05-10T00:35:28.349Z,518.4615
2023-05-10T00:36:29.978Z,513.7692
2023-05-10T00:37:31.664Z,512.7692
2023-05-10T00:38:33.207Z,522.3846
2023-05-10T00:39:34.881Z,522.4615
2023-05-10T00:40:36.595Z,518.8461
2023-05-10T00:41:38.179Z,518.0769
2023-05-10T00:42:39.781Z,517.8461
2023-05-10T00:43:41.458Z,519.7692
2023-05-10T00:44:43.045Z,520.4615
2023-05-10T00:45:44.749Z,520.0000
2023-05-10T00:46:46.348Z,520.2308
2023-05-10T00:47:48.079Z,519.3077
2023-05-10T00:48:49.674Z,517.6923
2023-05-10T00:49:51.249Z,518.0769
2023-05-10T00:50:52.969Z,517.8461
2023-05-10T00:51:55.180Z,517.6923
2023-05-10T00:52:57.127Z,517.0000
2023-05-10T00:53:57.839Z,517.0769
2023-05-10T00:54:59.543Z,515.6923
2023-05-10T00:56:01.161Z,516.8461
2023-05-10T00:57:02.831Z,519.0000
2023-05-10T00:58:04.388Z,519.4615
2023-05-10T00:59:06.018Z,520.3846
2023-05-10T01:00:07.745Z,518.9231
2023-05-10T01:01:09.313Z,516.6923
2023-05-10T01:02:12.752Z,517.4615
2023-05-10T01:03:12.736Z,517.3077
2023-05-10T01:04:14.241Z,516.7692
2023-05-10T01:05:16.048Z,520.1539
2023-05-10T01:06:17.460Z,521.9231
2023-05-10T01:07:19.224Z,521.0000
2023-05-10T01:08:20.755Z,517.6154
2023-05-10T01:09:22.435Z,522.7692
2023-05-10T01:10:24.072Z,526.6154
2023-05-10T01:11:25.702Z,529.1539
2023-05-10T01:12:27.372Z,530.0000
2023-05-10T01:13:29.104Z,529.3077
2023-05-10T01:14:30.622Z,529.5385
2023-05-10T01:15:32.309Z,579.0000
2023-05-10T01:16:33.999Z,356.8462
2023-05-10T01:17:35.803Z,408.9231
2023-05-10T01:18:37.138Z,621.0000
2023-05-10T01:19:38.852Z,531.0769
2023-05-10T01:20:40.469Z,531.7692
2023-05-10T01:21:42.144Z,524.8461
2023-05-10T01:22:43.793Z,522.8461
2023-05-10T01:23:45.406Z,520.7692
2023-05-10T01:24:47.037Z,519.7692
2023-05-10T01:25:48.680Z,519.2308
2023-05-10T01:26:50.317Z,520.7692
2023-05-10T01:27:52.212Z,520.7692
2023-05-10T01:28:53.646Z,521.3077
2023-05-10T01:30:05.907Z,518.6923
2023-05-10T01:30:56.891Z,520.0000
2023-05-10T01:31:58.541Z,521.4615
2023-05-10T01:33:00.250Z,521.6154
2023-05-10T01:34:01.905Z,522.3846
2023-05-10T01:35:03.514Z,525.3846
2023-05-10T01:36:05.247Z,525.2308
2023-05-10T01:37:06.828Z,527.6154
2023-05-10T01:38:08.439Z,526.3077
2023-05-10T01:39:10.057Z,521.4615
2023-05-10T01:40:11.653Z,518.3846
2023-05-10T01:41:13.339Z,516.4615
2023-05-10T01:42:14.948Z,515.5385
2023-05-10T01:43:16.660Z,516.0769
2023-05-10T01:44:18.274Z,516.5385
2023-05-10T01:45:19.905Z,519.3846
2023-05-10T01:46:21.580Z,523.4615
2023-05-10T01:47:23.194Z,522.8461
2023-05-10T01:48:24.871Z,523.4615
2023-05-10T01:49:26.556Z,524.3846
2023-05-10T01:50:28.100Z,525.0769
2023-05-10T01:51:29.750Z,523.7692
2023-05-10T01:52:31.445Z,524.6923
2023-05-10T01:53:33.244Z,526.3077
2023-05-10T01:54:34.653Z,527.8461
2023-05-10T01:55:36.340Z,526.9231
2023-05-10T01:56:37.884Z,526.3846
2023-05-10T01:57:39.524Z,526.1539
2023-05-10T01:58:41.191Z,528.0000
2023-05-10T01:59:42.816Z,528.0000
2023-05-10T02:00:44.435Z,526.0000
2023-05-10T02:01:46.128Z,523.7692
2023-05-10T02:02:47.777Z,525.3077
2023-05-10T02:03:49.448Z,528.4615
2023-05-10T02:04:52.197Z,528.7692
2023-05-10T02:05:53.708Z,528.1539
2023-05-10T02:06:55.328Z,530.2308
2023-05-10T02:07:56.096Z,530.6923
2023-05-10T02:08:58.344Z,530.0000
2023-05-10T02:09:59.484Z,527.8461
2023-05-10T02:11:01.990Z,527.6154
2023-05-10T02:12:03.704Z,527.6923
2023-05-10T02:13:04.261Z,527.3846
2023-05-10T02:14:06.230Z,525.2308
2023-05-10T02:15:07.631Z,526.3846
2023-05-10T02:16:09.261Z,527.6154
2023-05-10T02:17:10.806Z,528.4615
2023-05-10T02:18:12.507Z,528.4615
2023-05-10T02:19:14.141Z,526.9231
2023-05-10T02:20:16.460Z,527.3077
2023-05-10T02:21:17.419Z,527.5385
2023-05-10T02:22:19.081Z,527.2308
2023-05-10T02:23:20.679Z,525.0769
2023-05-10T02:24:22.360Z,523.6154
2023-05-10T02:25:24.043Z,522.3846
2023-05-10T02:26:25.626Z,521.6923
2023-05-10T02:27:27.257Z,521.5385
2023-05-10T02:28:28.945Z,523.3077
2023-05-10T02:29:30.704Z,523.5385
2023-05-10T02:30:32.268Z,524.9231
2023-05-10T02:31:34.015Z,526.4615
2023-05-10T02:32:35.629Z,523.6923
2023-05-10T02:33:37.153Z,523.0000
2023-05-10T02:34:38.907Z,523.5385
2023-05-10T02:35:40.465Z,525.6923
2023-05-10T02:36:42.168Z,523.7692
2023-05-10T02:37:43.806Z,523.4615
2023-05-10T02:38:45.365Z,524.1539
2023-05-10T02:39:47.116Z,525.6154
2023-05-10T02:40:48.702Z,528.0000
2023-05-10T02:41:50.285Z,526.9231
2023-05-10T02:42:51.957Z,527.7692
2023-05-10T02:43:53.632Z,530.7692
2023-05-10T02:44:55.226Z,531.5385
2023-05-10T02:45:57.274Z,528.8461
2023-05-10T02:46:58.478Z,527.9231
2023-05-10T02:48:00.246Z,527.4615
2023-05-10T02:49:01.795Z,439.5385
2023-05-10T02:50:03.426Z,203.3846
2023-05-10T02:51:05.088Z,411.4615
2023-05-10T02:52:06.748Z,523.2308
2023-05-10T02:53:08.333Z,539.2308
2023-05-10T02:54:10.080Z,537.6154
2023-05-10T02:55:11.645Z,535.0000
2023-05-10T02:56:13.355Z,535.3077
2023-05-10T02:57:15.009Z,532.7692
2023-05-10T02:58:16.609Z,533.0000
2023-05-10T02:59:18.213Z,531.3077
2023-05-10T03:00:19.929Z,530.6923
2023-05-10T03:01:21.517Z,532.1539
2023-05-10T03:02:23.190Z,531.5385
2023-05-10T03:03:24.775Z,530.0769
2023-05-10T03:04:26.472Z,528.3077
2023-05-10T03:05:28.100Z,526.7692
2023-05-10T03:06:29.752Z,524.8461
2023-05-10T03:07:31.356Z,524.0769
2023-05-10T03:08:33.041Z,526.1539
2023-05-10T03:09:34.703Z,528.7692
2023-05-10T03:10:36.351Z,530.2308
2023-05-10T03:11:38.090Z,531.7692
2023-05-10T03:12:39.582Z,531.1539
2023-05-10T03:13:41.282Z,531.6154
2023-05-10T03:14:42.858Z,532.3077
2023-05-10T03:15:44.608Z,530.1539
2023-05-10T03:16:46.337Z,527.7692
2023-05-10T03:17:47.795Z,526.7692
2023-05-10T03:18:49.453Z,526.3846
2023-05-10T03:19:51.143Z,524.8461
2023-05-10T03:20:52.800Z,524.3077
2023-05-10T03:21:54.565Z,524.0000
2023-05-10T03:22:56.025Z,522.0000
2023-05-10T03:23:57.689Z,519.3846
2023-05-10T03:24:59.342Z,523.3077
2023-05-10T03:26:01.024Z,525.3077
2023-05-10T03:27:02.629Z,525.5385
2023-05-10T03:28:04.249Z,525.5385
2023-05-10T03:29:05.897Z,528.1539
2023-05-10T03:30:07.488Z,528.1539
2023-05-10T03:31:09.204Z,528.0769
2023-05-10T03:32:10.817Z,529.4615
2023-05-10T03:33:12.422Z,530.8461
2023-05-10T03:34:14.108Z,529.2308
2023-05-10T03:35:15.823Z,525.3077
2023-05-10T03:36:17.487Z,525.0000
2023-05-10T03:37:19.039Z,524.4615
2023-05-10T03:38:20.725Z,525.1539
2023-05-10T03:39:22.378Z,526.6923
2023-05-10T03:40:23.937Z,527.2308
2023-05-10T03:41:25.572Z,528.7692
2023-05-10T03:42:27.331Z,529.1539
2023-05-10T03:43:28.848Z,529.9231
2023-05-10T03:44:30.513Z,530.0000
2023-05-10T03:45:32.218Z,529.6923
2023-05-10T03:46:33.834Z,528.0769
2023-05-10T03:47:35.479Z,528.1539
2023-05-10T03:48:37.096Z,530.5385
2023-05-10T03:49:38.709Z,530.6154
2023-05-10T03:50:40.389Z,529.3077
2023-05-10T03:51:42.110Z,527.6154
2023-05-10T03:52:43.684Z,528.0769
2023-05-10T03:53:45.277Z,527.4615
2023-05-10T03:54:46.932Z,528.3846
2023-05-10T03:55:48.597Z,530.0000
2023-05-10T03:56:50.256Z,530.5385
2023-05-10T03:57:51.918Z,530.6154
2023-05-10T03:58:53.476Z,528.3077
2023-05-10T03:59:55.049Z,527.5385
2023-05-10T04:00:56.700Z,453.8462
2023-05-10T04:01:58.368Z,555.7692
2023-05-10T04:03:00.121Z,643.0769
2023-05-10T04:04:01.624Z,523.4615
2023-05-10T04:05:03.285Z,556.4615
2023-05-10T04:06:04.939Z,550.3846
2023-05-10T04:07:06.531Z,539.9231
2023-05-10T04:08:08.212Z,535.6923
2023-05-10T04:09:09.819Z,533.8461
2023-05-10T04:10:11.499Z,532.3846
2023-05-10T04:11:15.724Z,532.8461
2023-05-10T04:12:14.747Z,531.6923
2023-05-10T04:13:16.552Z,533.4615
2023-05-10T04:14:18.043Z,532.9231
2023-05-10T04:15:19.671Z,531.1539
2023-05-10T04:16:21.323Z,530.8461
2023-05-10T04:17:23.075Z,392.4615
2023-05-10T04:18:24.656Z,453.2308
2023-05-10T04:19:27.273Z,660.6923
2023-05-10T04:20:27.932Z,735.8461
2023-05-10T04:21:29.568Z,566.4615
2023-05-10T04:22:31.175Z,533.1539
2023-05-10T04:23:32.930Z,532.0000
2023-05-10T04:24:34.580Z,530.9231
2023-05-10T04:25:37.256Z,528.2308
2023-05-10T04:26:37.830Z,529.3846
2023-05-10T04:27:39.429Z,529.6154
2023-05-10T04:28:41.227Z,529.9231
2023-05-10T04:29:42.794Z,531.0769
2023-05-10T04:30:44.420Z,532.9231
2023-05-10T04:31:46.066Z,485.6923
2023-05-10T04:32:48.721Z,578.3846
2023-05-10T04:33:49.347Z,544.3077
2023-05-10T04:34:50.972Z,536.3846
2023-05-10T04:35:52.597Z,535.5385
2023-05-10T04:36:54.295Z,532.6154
2023-05-10T04:37:55.833Z,531.3077
2023-05-10T04:38:57.606Z,531.6923
2023-05-10T04:39:59.160Z,531.0769
2023-05-10T04:41:00.797Z,530.3846
2023-05-10T04:42:02.533Z,529.0000
2023-05-10T04:43:04.209Z,528.3846
2023-05-10T04:44:06.003Z,527.8461
2023-05-10T04:45:07.520Z,528.7692
2023-05-10T04:46:09.168Z,530.3077
2023-05-10T04:47:12.676Z,530.5385
2023-05-10T04:48:12.474Z,530.1539
2023-05-10T04:49:14.101Z,530.0769
2023-05-10T04:50:15.969Z,528.9231
2023-05-10T04:51:17.473Z,528.3846
2023-05-10T04:52:18.959Z,527.7692
2023-05-10T04:53:20.684Z,524.8461
2023-05-10T04:54:23.040Z,523.5385
2023-05-10T04:55:23.989Z,525.6923
2023-05-10T04:56:25.574Z,527.6923
2023-05-10T04:57:27.234Z,525.5385
2023-05-10T04:58:28.830Z,523.4615
2023-05-10T04:59:30.938Z,526.7692
2023-05-10T05:00:32.138Z,519.5385
2023-05-10T05:01:33.955Z,545.3077
2023-05-10T05:02:35.483Z,526.9231
2023-05-10T05:03:38.076Z,525.7692
2023-05-10T05:04:38.632Z,521.0769
2023-05-10T05:05:40.349Z,524.4615
2023-05-10T05:06:42.912Z,552.6154
2023-05-10T05:07:43.568Z,553.8461
2023-05-10T05:08:45.280Z,545.3846
2023-05-10T05:09:46.832Z,534.4615
2023-05-10T05:10:48.614Z,533.0769
2023-05-10T05:11:50.173Z,533.9231
2023-05-10T05:12:51.925Z,561.3077
2023-05-10T05:13:53.518Z,539.0000
2023-05-10T05:14:55.081Z,538.4615
2023-05-10T05:15:57.009Z,524.3846
2023-05-10T05:16:58.422Z,527.3846
2023-05-10T05:18:00.110Z,528.2308
2023-05-10T05:19:01.686Z,559.1539
2023-05-10T05:20:03.336Z,516.6154
2023-05-10T05:21:04.954Z,529.8461
2023-05-10T05:22:06.641Z,532.6154
2023-05-10T05:23:08.257Z,534.3846
2023-05-10T05:24:09.906Z,531.9231
2023-05-10T05:25:11.532Z,542.4615
2023-05-10T05:26:13.214Z,543.0769
2023-05-10T05:27:14.849Z,535.6154
2023-05-10T05:28:16.402Z,541.7692
2023-05-10T05:29:18.055Z,522.2308
2023-05-10T05:30:19.804Z,568.7692
2023-05-10T05:31:22.413Z,518.7692
2023-05-10T05:32:22.959Z,532.5385
2023-05-10T05:33:24.611Z,524.6154
2023-05-10T05:34:26.475Z,531.3846
2023-05-10T05:35:28.927Z,542.4615
2023-05-10T05:36:29.543Z,581.6154
2023-05-10T05:37:31.482Z,535.0000
2023-05-10T05:38:33.817Z,534.5385
2023-05-10T05:39:35.331Z,536.3077
2023-05-10T05:40:36.164Z,527.0000
2023-05-10T05:41:38.761Z,543.3077
2023-05-10T05:42:40.491Z,533.2308
2023-05-10T05:43:40.957Z,534.3846
2023-05-10T05:44:42.941Z,532.4615
2023-05-10T05:45:45.381Z,536.1539
2023-05-10T05:46:45.972Z,557.3846
2023-05-10T05:47:48.585Z,562.9231
2023-05-10T05:48:49.297Z,549.1539
2023-05-10T05:49:50.925Z,547.2308
2023-05-10T05:50:52.527Z,519.6154
2023-05-10T05:51:54.462Z,523.7692
2023-05-10T05:52:56.793Z,527.3077
2023-05-10T05:53:57.510Z,544.0000
2023-05-10T05:54:59.091Z,543.6923
2023-05-10T05:56:00.882Z,550.7692
2023-05-10T05:57:02.460Z,526.3077
2023-05-10T05:58:04.062Z,518.3846
2023-05-10T05:59:05.690Z,514.1539
2023-05-10T06:00:07.409Z,527.1539
2023-05-10T06:01:08.972Z,534.3077
2023-05-10T06:02:10.746Z,521.3846
2023-05-10T06:03:13.360Z,535.3846
2023-05-10T06:04:13.974Z,533.1539
2023-05-10T06:05:16.612Z,570.8461
2023-05-10T06:06:17.281Z,511.2308
2023-05-10T06:07:19.857Z,534.8461
2023-05-10T06:08:20.529Z,539.7692
2023-05-10T06:09:22.189Z,533.7692
2023-05-10T06:10:23.802Z,532.3846
2023-05-10T06:11:26.409Z,565.8461
2023-05-10T06:12:27.358Z,545.0000
2023-05-10T06:13:29.936Z,523.0000
2023-05-10T06:14:30.298Z,528.4615
2023-05-10T06:15:32.048Z,522.0769
2023-05-10T06:16:34.713Z,562.1539
2023-05-10T06:17:35.271Z,534.3077
2023-05-10T06:18:36.939Z,532.9231
2023-05-10T06:19:38.526Z,530.5385
2023-05-10T06:20:40.241Z,541.3077
2023-05-10T06:21:41.862Z,531.5385
2023-05-10T06:22:43.620Z,594.7692
2023-05-10T06:23:45.133Z,540.2308
2023-05-10T06:24:46.756Z,529.6923
2023-05-10T06:25:48.451Z,531.3846
2023-05-10T06:26:50.136Z,527.6923
2023-05-10T06:27:53.651Z,570.6923
2023-05-10T06:28:53.403Z,564.8461
2023-05-10T06:30:02.177Z,527.0769
2023-05-10T06:30:56.631Z,539.6923
2023-05-10T06:31:58.458Z,541.6154
2023-05-10T06:32:59.998Z,542.7692
2023-05-10T06:34:01.542Z,552.6154
2023-05-10T06:35:03.200Z,527.7692
2023-05-10T06:36:04.887Z,534.4615
2023-05-10T06:37:06.490Z,526.9231
2023-05-10T06:38:08.260Z,530.3846
2023-05-10T06:39:09.769Z,534.3077
2023-05-10T06:40:11.497Z,569.3846
2023-05-10T06:41:13.114Z,531.8461
2023-05-10T06:42:14.828Z,533.9231
2023-05-10T06:43:17.354Z,521.3846
2023-05-10T06:44:18.059Z,550.8461
2023-05-10T06:45:19.808Z,562.4615
2023-05-10T06:46:21.284Z,540.9231
2023-05-10T06:47:22.995Z,531.6154
2023-05-10T06:48:24.637Z,524.3077
2023-05-10T06:49:26.226Z,527.6923
2023-05-10T06:50:27.790Z,544.4615
2023-05-10T06:51:29.457Z,568.6154
2023-05-10T06:52:31.107Z,515.5385
2023-05-10T06:53:32.770Z,524.0000
2023-05-10T06:54:34.385Z,526.3846
2023-05-10T06:55:36.084Z,533.2308
2023-05-10T06:56:37.664Z,562.0769
2023-05-10T06:57:39.442Z,538.4615
2023-05-10T06:58:42.003Z,546.0000
2023-05-10T06:59:42.665Z,542.1539
2023-05-10T07:00:44.330Z,525.0000
2023-05-10T07:01:45.945Z,532.5385
2023-05-10T07:02:47.569Z,538.2308
2023-05-10T07:03:49.398Z,544.6154
2023-05-10T07:04:50.901Z,532.6154
2023-05-10T07:05:52.455Z,542.0000
2023-05-10T07:06:54.087Z,527.8461
2023-05-10T07:07:55.761Z,542.2308
2023-05-10T07:08:58.385Z,584.6154
2023-05-10T07:09:59.058Z,532.9231
2023-05-10T07:11:00.656Z,552.3846
2023-05-10T07:12:02.350Z,531.4615
2023-05-10T07:13:04.009Z,527.1539
2023-05-10T07:14:05.657Z,554.3077
2023-05-10T07:15:07.286Z,525.0769
2023-05-10T07:16:08.963Z,546.0000
2023-05-10T07:17:10.586Z,536.7692
2023-05-10T07:18:12.210Z,530.6923
2023-05-10T07:19:13.788Z,553.3077
2023-05-10T07:20:15.564Z,577.6923
2023-05-10T07:21:17.106Z,543.1539
2023-05-10T07:22:18.746Z,566.5385
2023-05-10T07:23:20.402Z,529.4615
2023-05-10T07:24:22.396Z,526.9231
2023-05-10T07:25:23.647Z,534.2308
2023-05-10T07:26:25.882Z,549.6923
2023-05-10T07:27:27.796Z,532.2308
2023-05-10T07:28:28.691Z,557.3846
2023-05-10T07:29:30.303Z,535.0769
2023-05-10T07:30:32.021Z,531.6923
2023-05-10T07:31:33.495Z,546.7692
2023-05-10T07:32:35.300Z,584.1539
2023-05-10T07:33:36.809Z,554.9231
2023-05-10T07:34:38.496Z,566.6923
2023-05-10T07:35:40.111Z,571.8461
2023-05-10T07:36:41.691Z,573.4615
2023-05-10T07:37:43.281Z,567.5385
2023-05-10T07:38:45.003Z,575.4615
2023-05-10T07:39:48.420Z,589.2308
2023-05-10T07:40:48.823Z,574.8461
2023-05-10T07:41:49.917Z,594.0769
2023-05-10T07:42:51.517Z,609.6923
2023-05-10T07:43:53.731Z,610.9231
2023-05-10T07:44:54.885Z,605.2308
2023-05-10T07:45:56.544Z,592.6923
2023-05-10T07:46:58.769Z,641.6923
2023-05-10T07:47:59.804Z,617.6154
2023-05-10T07:49:01.405Z,640.8461
2023-05-10T07:50:03.074Z,588.5385
2023-05-10T07:51:04.792Z,608.1539
2023-05-10T07:52:06.405Z,648.3077
2023-05-10T07:53:08.002Z,659.9231
2023-05-10T07:54:09.641Z,640.2308
2023-05-10T07:55:11.338Z,605.5385
2023-05-10T07:56:12.953Z,620.3077
2023-05-10T07:57:14.596Z,661.0000
2023-05-10T07:58:16.236Z,682.6923
2023-05-10T07:59:17.932Z,614.5385
2023-05-10T08:00:19.828Z,667.0769
2023-05-10T08:01:21.619Z,636.2308
2023-05-10T08:02:22.911Z,630.4615
2023-05-10T08:03:24.647Z,640.1539
2023-05-10T08:04:26.269Z,664.3077
2023-05-10T08:05:27.936Z,618.2308
2023-05-10T08:06:29.568Z,610.5385
2023-05-10T08:07:31.233Z,609.2308
2023-05-10T08:08:33.775Z,613.2308
2023-05-10T08:09:34.503Z,642.0769
2023-05-10T08:10:36.194Z,609.6154
2023-05-10T08:11:37.886Z,604.8461
2023-05-10T08:12:39.414Z,599.9231
2023-05-10T08:13:41.059Z,595.6154
2023-05-10T08:14:42.647Z,600.3077
2023-05-10T08:15:44.453Z,601.4615
2023-05-10T08:16:45.986Z,609.0769
2023-05-10T08:17:48.680Z,593.0769
2023-05-10T08:18:49.204Z,582.6154
2023-05-10T08:19:50.892Z,586.7692
2023-05-10T08:20:53.536Z,589.4615
2023-05-10T08:21:54.194Z,611.8461
2023-05-10T08:22:55.804Z,615.7692
2023-05-10T08:23:57.556Z,581.8461
2023-05-10T08:24:59.073Z,568.2308
2023-05-10T08:26:01.017Z,567.6923
2023-05-10T08:27:02.498Z,574.6923
2023-05-10T08:28:04.147Z,589.6154
2023-05-10T08:29:05.730Z,575.6923
2023-05-10T08:30:07.424Z,573.6154
2023-05-10T08:31:09.147Z,567.9231
2023-05-10T08:32:10.720Z,569.0769
2023-05-10T08:33:12.426Z,588.5385
2023-05-10T08:34:14.039Z,581.0000
2023-05-10T08:35:15.852Z,572.3846
2023-05-10T08:36:17.362Z,567.0769
2023-05-10T08:37:19.012Z,565.7692
2023-05-10T08:38:21.533Z,568.3077
2023-05-10T08:39:29.847Z,591.0000
2023-05-10T08:40:23.878Z,575.5385
2023-05-10T08:41:25.511Z,570.4615
2023-05-10T08:42:27.187Z,559.9231
2023-05-10T08:43:29.765Z,557.6154
2023-05-10T08:44:30.431Z,556.6154
2023-05-10T08:45:32.087Z,575.9231
2023-05-10T08:46:33.770Z,572.8461
2023-05-10T08:47:35.365Z,563.0000
2023-05-10T08:48:37.025Z,557.7692
2023-05-10T08:49:38.654Z,554.0000
2023-05-10T08:50:40.592Z,554.0769
2023-05-10T08:51:43.823Z,568.3846
2023-05-10T08:52:43.565Z,573.1539
2023-05-10T08:53:45.492Z,555.0000
2023-05-10T08:54:47.695Z,546.1539
2023-05-10T08:55:48.386Z,546.2308
2023-05-10T08:56:50.192Z,547.5385
2023-05-10T08:57:51.642Z,552.2308
2023-05-10T08:58:53.444Z,554.9231
2023-05-10T08:59:55.002Z,547.0769
2023-05-10T09:00:56.801Z,544.2308
2023-05-10T09:01:58.374Z,544.2308
2023-05-10T09:03:00.038Z,543.3077
2023-05-10T09:04:02.045Z,543.6154
2023-05-10T09:05:03.413Z,553.9231
2023-05-10T09:06:05.063Z,543.0769
2023-05-10T09:07:06.623Z,541.4615
2023-05-10T09:08:08.324Z,538.6154
2023-05-10T09:09:09.852Z,535.9231
2023-05-10T09:10:11.541Z,546.6923
2023-05-10T09:11:13.192Z,549.6154
2023-05-10T09:12:14.810Z,541.0769
2023-05-10T09:13:16.527Z,539.2308
2023-05-10T09:14:18.122Z,540.3077
2023-05-10T09:15:19.831Z,540.5385
2023-05-10T09:16:22.460Z,552.1539
2023-05-10T09:17:23.152Z,549.5385
2023-05-10T09:18:26.018Z,549.0769
2023-05-10T09:19:27.400Z,531.6923
2023-05-10T09:20:27.884Z,527.3077
2023-05-10T09:21:29.505Z,530.2308
2023-05-10T09:22:31.282Z,539.3846
2023-05-10T09:23:32.764Z,539.0000
2023-05-10T09:24:35.416Z,536.6923
2023-05-10T09:25:36.094Z,531.4615
2023-05-10T09:26:37.747Z,528.4615
2023-05-10T09:27:39.345Z,526.8461
2023-05-10T09:28:41.088Z,531.6154
2023-05-10T09:29:42.624Z,529.8461
2023-05-10T09:30:44.340Z,533.3846
2023-05-10T09:31:45.928Z,527.3077
2023-05-10T09:32:47.643Z,525.0000
2023-05-10T09:33:49.214Z,525.0000
2023-05-10T09:34:50.847Z,527.2308
2023-05-10T09:35:52.586Z,532.9231
2023-05-10T09:36:54.121Z,539.0769
2023-05-10T09:37:55.861Z,528.0769
2023-05-10T09:38:57.535Z,524.3077
2023-05-10T09:39:59.076Z,522.8461
2023-05-10T09:41:00.817Z,645.7692
2023-05-10T09:42:02.362Z,444.6923
2023-05-10T09:43:04.037Z,530.2308
2023-05-10T09:44:05.686Z,528.1539
2023-05-10T09:45:07.320Z,523.4615
2023-05-10T09:46:09.003Z,525.6923
2023-05-10T09:47:10.564Z,532.6154
2023-05-10T09:48:12.462Z,537.0000
2023-05-10T09:49:13.853Z,536.1539
2023-05-10T09:50:15.563Z,525.9231
2023-05-10T09:51:17.235Z,523.6923
2023-05-10T09:52:18.834Z,521.7692
2023-05-10T09:53:20.468Z,527.1539
2023-05-10T09:54:22.110Z,522.0769
2023-05-10T09:55:23.765Z,524.6923
2023-05-10T09:56:25.431Z,518.7692
2023-05-10T09:57:27.038Z,517.2308
2023-05-10T09:58:28.733Z,519.8461
2023-05-10T09:59:30.325Z,533.4615
2023-05-10T10:00:31.975Z,531.4615
2023-05-10T10:01:33.705Z,526.1539
2023-05-10T10:02:35.283Z,518.3846
2023-05-10T10:03:36.936Z,517.8461
2023-05-10T10:04:38.545Z,520.0769
2023-05-10T10:05:40.274Z,528.6923
2023-05-10T10:06:41.831Z,528.8461
2023-05-10T10:07:43.476Z,522.8461
2023-05-10T10:08:45.192Z,512.6154
2023-05-10T10:09:46.827Z,512.3846
2023-05-10T10:10:48.437Z,507.6923
2023-05-10T10:11:50.064Z,523.9231
2023-05-10T10:12:51.666Z,517.2308
2023-05-10T10:13:53.362Z,518.1539
2023-05-10T10:14:54.971Z,514.2308
2023-05-10T10:15:56.627Z,512.9231
2023-05-10T10:17:06.787Z,512.6154
2023-05-10T10:18:00.044Z,516.9231
2023-05-10T10:19:01.700Z,520.1539
2023-05-10T10:20:03.266Z,518.0769
2023-05-10T10:21:04.804Z,511.8462
2023-05-10T10:22:06.583Z,509.5385
2023-05-10T10:23:08.134Z,509.5385
2023-05-10T10:24:09.857Z,513.5385
2023-05-10T10:25:11.381Z,511.8462
2023-05-10T10:26:13.106Z,517.3846
2023-05-10T10:27:14.692Z,507.3846
2023-05-10T10:28:16.271Z,502.1538
2023-05-10T10:29:17.991Z,546.3846
2023-05-10T10:30:19.731Z,523.3846
2023-05-10T10:31:21.323Z,518.6923
2023-05-10T10:32:23.022Z,531.5385
2023-05-10T10:33:28.739Z,505.6154
2023-05-10T10:34:26.234Z,514.7692
2023-05-10T10:35:27.890Z,585.7692
2023-05-10T10:36:29.554Z,511.3846
2023-05-10T10:37:31.096Z,536.7692
2023-05-10T10:38:32.773Z,526.5385
2023-05-10T10:39:34.467Z,512.5385
2023-05-10T10:40:36.083Z,521.8461
2023-05-10T10:41:37.717Z,539.6154
2023-05-10T10:42:39.358Z,530.1539
2023-05-10T10:43:40.997Z,527.8461
2023-05-10T10:44:42.614Z,521.6923
2023-05-10T10:45:44.238Z,500.7692
2023-05-10T10:46:45.946Z,521.0000
2023-05-10T10:47:47.642Z,553.5385
2023-05-10T10:48:49.139Z,516.4615
2023-05-10T10:49:51.547Z,535.6923
2023-05-10T10:50:52.611Z,511.0000
2023-05-10T10:51:54.079Z,508.0769
2023-05-10T10:52:55.830Z,509.6154
2023-05-10T10:53:57.402Z,527.9231
2023-05-10T10:54:59.175Z,509.5385
2023-05-10T10:56:00.744Z,518.6923
2023-05-10T10:57:02.348Z,513.3077
2023-05-10T10:58:03.980Z,507.6923
2023-05-10T10:59:05.653Z,515.0000
2023-05-10T11:00:07.295Z,521.3077
2023-05-10T11:01:08.939Z,510.2308
2023-05-10T11:02:10.587Z,506.3077
2023-05-10T11:03:12.246Z,501.4615
2023-05-10T11:04:14.052Z,506.5385
2023-05-10T11:05:15.602Z,524.5385
2023-05-10T11:06:17.152Z,527.5385
2023-05-10T11:07:18.820Z,526.3846
2023-05-10T11:08:20.400Z,518.0000
2023-05-10T11:09:21.982Z,511.5385
2023-05-10T11:10:24.038Z,510.9231
2023-05-10T11:11:25.286Z,518.9231
2023-05-10T11:12:27.105Z,529.5385
2023-05-10T11:13:28.567Z,519.1539
2023-05-10T11:14:30.363Z,501.8462
2023-05-10T11:15:31.988Z,494.2308
2023-05-10T11:16:33.553Z,504.6923
2023-05-10T11:17:35.231Z,515.1539
2023-05-10T11:18:36.916Z,503.4615
2023-05-10T11:19:38.448Z,504.0000
2023-05-10T11:20:40.203Z,504.9231
2023-05-10T11:21:41.718Z,501.0769
2023-05-10T11:22:43.471Z,506.0769
2023-05-10T11:23:45.066Z,514.6923
2023-05-10T11:24:47.860Z,525.0769
2023-05-10T11:25:48.382Z,531.4615
2023-05-10T11:26:50.000Z,505.6923
2023-05-10T11:27:51.603Z,501.1538
2023-05-10T11:28:53.280Z,502.9231
2023-05-10T11:29:54.881Z,518.6923
2023-05-10T11:30:56.625Z,510.7692
2023-05-10T11:31:58.183Z,514.9231
2023-05-10T11:32:59.816Z,500.6923
2023-05-10T11:34:01.464Z,497.0769
2023-05-10T11:35:03.090Z,502.0769
2023-05-10T11:36:04.810Z,512.1539
2023-05-10T11:37:06.354Z,503.9231
2023-05-10T11:38:08.031Z,502.6154
2023-05-10T11:39:09.667Z,499.3846
2023-05-10T11:40:11.386Z,500.2308
2023-05-10T11:41:12.966Z,504.5385
2023-05-10T11:42:15.362Z,519.1539
2023-05-10T11:43:16.209Z,511.6154
2023-05-10T11:44:17.923Z,510.2308
2023-05-10T11:45:19.549Z,502.3846
2023-05-10T11:46:21.307Z,502.3077
2023-05-10T11:47:22.918Z,505.9231
2023-05-10T11:48:24.490Z,521.7692
2023-05-10T11:49:26.159Z,510.6154
2023-05-10T11:50:27.724Z,503.1538
2023-05-10T11:51:29.489Z,500.6923
2023-05-10T11:52:31.086Z,500.3846
2023-05-10T11:53:32.677Z,509.5385
2023-05-10T11:54:34.433Z,546.1539
2023-05-10T11:55:35.939Z,518.5385
2023-05-10T11:56:37.666Z,506.8462
2023-05-10T11:57:39.564Z,495.0000
2023-05-10T11:58:40.930Z,497.3077
2023-05-10T11:59:43.331Z,537.6154
2023-05-10T12:00:44.173Z,517.0000
2023-05-10T12:01:45.903Z,522.1539
2023-05-10T12:02:47.585Z,527.1539
2023-05-10T12:03:49.226Z,501.3846